Time;durP1;ratioP1;P1;durP2;ratioP2;P2;SDS_P1;SDS_P2;PMS_P1;PMS_P2;Temp;Humidity;BMP_temperature;BMP_pressure;BME280_temperature;BME280_humidity;BME280_pressure;Samples;Min_cycle;Max_cycle;Signal;HPM_P1;HPM_P2
2022/03/01 00:00:18;;;;;;;;;;;21.20;42.20;;;;;;5133233;28;19923;-43
2022/03/01 00:02:45;;;;;;;;;;;21.20;42.20;;;;;;5133025;27;19973;-42
2022/03/01 00:05:12;;;;;;;;;;;21.20;42.20;;;;;;5135681;27;19923;-44
2022/03/01 00:07:40;;;;;;;;;;;21.20;42.20;;;;;;5137971;27;19923;-43
2022/03/01 00:10:07;;;;;;;;;;;21.20;42.20;;;;;;5138163;27;20286;-44
2022/03/01 00:12:34;;;;;;;;;;;21.20;42.20;;;;;;5137423;27;20339;-43
2022/03/01 00:15:01;;;;;;;;;;;21.20;42.20;;;;;;5137970;27;19928;-42
2022/03/01 00:17:28;;;;;;;;;;;21.20;42.20;;;;;;5136522;27;19923;-44
2022/03/01 00:19:55;;;;;;;;;;;21.20;42.20;;;;;;5153017;27;20439;-44
2022/03/01 00:22:22;;;;;;;;;;;21.20;42.20;;;;;;5158136;27;20442;-45
2022/03/01 00:24:49;;;;;;;;;;;21.20;42.20;;;;;;5158159;27;19948;-44
2022/03/01 00:27:17;;;;;;;;;;;21.20;42.20;;;;;;5157793;27;19948;-46
2022/03/01 00:29:43;;;;;;;;;;;21.20;42.20;;;;;;5158423;27;19966;-46
2022/03/01 00:32:11;;;;;;;;;;;21.20;42.20;;;;;;5138944;27;20034;-44
2022/03/01 00:34:38;;;;;;;;;;;21.20;42.20;;;;;;5158916;27;19972;-42
2022/03/01 00:37:05;;;;;;;;;;;21.20;42.20;;;;;;5140017;27;19988;-46
2022/03/01 00:39:32;;;;;;;;;;;21.20;42.20;;;;;;5158280;27;19926;-44
2022/03/01 00:41:59;;;;;;;;;;;21.20;42.20;;;;;;5139270;27;19967;-43
2022/03/01 00:44:26;;;;;;;;;;;21.20;42.20;;;;;;5157756;27;20382;-43
2022/03/01 00:46:53;;;;;;;;;;;21.20;42.20;;;;;;5156955;27;19923;-43
2022/03/01 00:49:20;;;;;;;;;;;21.20;42.20;;;;;;5157707;27;19930;-48
2022/03/01 00:51:47;;;;;;;;;;;21.20;42.20;;;;;;5157572;27;19968;-43
2022/03/01 00:54:14;;;;;;;;;;;21.20;42.80;;;;;;5157710;27;19923;-48
2022/03/01 00:56:42;;;;;;;;;;;21.20;42.20;;;;;;5157996;27;20324;-43
2022/03/01 00:59:09;;;;;;;;;;;21.10;42.10;;;;;;5138814;27;19923;-43
2022/03/01 01:01:36;;;;;;;;;;;21.20;42.20;;;;;;5156461;27;20425;-43
2022/03/01 01:04:03;;;;;;;;;;;21.20;42.20;;;;;;5139583;27;19923;-43
2022/03/01 01:06:30;;;;;;;;;;;21.10;42.10;;;;;;5157462;27;19923;-44
2022/03/01 01:08:57;;;;;;;;;;;21.10;42.10;;;;;;5157668;27;19976;-43
2022/03/01 01:11:24;;;;;;;;;;;21.10;42.10;;;;;;5157356;27;19930;-43
2022/03/01 01:13:51;;;;;;;;;;;21.10;42.10;;;;;;5156569;27;19923;-44
2022/03/01 01:16:18;;;;;;;;;;;21.10;42.10;;;;;;5157567;27;19927;-44
2022/03/01 01:18:46;;;;;;;;;;;21.10;42.10;;;;;;5155946;27;20289;-43
2022/03/01 01:21:13;;;;;;;;;;;21.10;42.10;;;;;;5138731;27;19966;-47
2022/03/01 01:23:41;;;;;;;;;;;21.10;42.10;;;;;;5157991;27;19927;-43
2022/03/01 01:26:09;;;;;;;;;;;21.10;42.10;;;;;;5157056;27;19923;-44
2022/03/01 01:28:36;;;;;;;;;;;21.10;42.10;;;;;;5156309;27;19954;-43
2022/03/01 01:31:04;;;;;;;;;;;21.10;42.10;;;;;;5156891;27;19972;-46
2022/03/01 01:33:31;;;;;;;;;;;21.10;42.10;;;;;;5156035;27;19949;-43
2022/03/01 01:35:58;;;;;;;;;;;21.10;42.10;;;;;;5157189;27;19930;-44
2022/03/01 01:38:25;;;;;;;;;;;21.10;42.10;;;;;;5157140;27;19923;-43
2022/03/01 01:40:52;;;;;;;;;;;21.10;42.10;;;;;;5157061;27;19927;-44
2022/03/01 01:43:19;;;;;;;;;;;21.10;42.10;;;;;;5156170;27;20320;-43
2022/03/01 01:45:46;;;;;;;;;;;21.10;42.10;;;;;;5157002;27;19930;-42
2022/03/01 01:48:13;;;;;;;;;;;21.10;42.10;;;;;;5137475;27;19966;-44
2022/03/01 01:50:41;;;;;;;;;;;21.10;42.10;;;;;;5156809;27;19923;-42
2022/03/01 01:53:08;;;;;;;;;;;21.10;42.10;;;;;;5156709;27;19923;-43
2022/03/01 01:55:35;;;;;;;;;;;21.10;42.10;;;;;;5156481;27;19927;-44
2022/03/01 01:58:02;;;;;;;;;;;21.10;42.10;;;;;;5156021;27;19941;-44
2022/03/01 02:00:29;;;;;;;;;;;21.10;42.10;;;;;;5156432;27;19999;-49
2022/03/01 02:02:58;;;;;;;;;;;21.10;42.10;;;;;;5155641;27;19923;-43
2022/03/01 02:05:27;;;;;;;;;;;21.10;42.10;;;;;;5156636;27;19923;-42
2022/03/01 02:07:54;;;;;;;;;;;21.10;42.10;;;;;;5156543;27;19983;-43
2022/03/01 02:10:21;;;;;;;;;;;21.10;42.10;;;;;;5156465;27;19981;-45
2022/03/01 02:12:48;;;;;;;;;;;21.10;42.20;;;;;;5155638;27;19923;-43
2022/03/01 02:15:15;;;;;;;;;;;21.10;42.10;;;;;;5156167;27;20026;-43
2022/03/01 02:17:43;;;;;;;;;;;21.10;42.20;;;;;;5155216;27;19927;-44
2022/03/01 02:20:15;;;;;;;;;;;21.10;42.20;;;;;;5155857;27;19923;-44
2022/03/01 02:22:42;;;;;;;;;;;21.10;42.10;;;;;;5137562;27;19972;-43
2022/03/01 02:25:09;;;;;;;;;;;21.10;42.10;;;;;;5156225;27;19930;-46
2022/03/01 02:27:37;;;;;;;;;;;21.10;42.10;;;;;;5155704;27;19947;-46
2022/03/01 02:30:07;;;;;;;;;;;21.10;42.10;;;;;;5154584;27;20130;-43
2022/03/01 02:32:35;;;;;;;;;;;21.10;42.10;;;;;;5154622;27;19923;-44
2022/03/01 02:35:03;;;;;;;;;;;21.10;42.10;;;;;;5155744;27;20010;-46
2022/03/01 02:37:33;;;;;;;;;;;21.10;42.10;;;;;;5156076;27;20429;-46
2022/03/01 02:40:00;;;;;;;;;;;21.10;42.10;;;;;;5155656;27;19923;-46
2022/03/01 02:42:30;;;;;;;;;;;21.10;42.10;;;;;;5155915;27;20031;-49
2022/03/01 02:44:58;;;;;;;;;;;21.10;42.10;;;;;;5154906;27;19923;-46
2022/03/01 02:47:25;;;;;;;;;;;21.10;42.10;;;;;;5155471;27;20274;-46
2022/03/01 02:49:52;;;;;;;;;;;21.10;42.10;;;;;;5134817;27;19927;-47
2022/03/01 02:52:19;;;;;;;;;;;21.10;42.10;;;;;;5134612;27;19930;-46
2022/03/01 02:54:46;;;;;;;;;;;21.10;42.10;;;;;;5134735;27;19972;-44
2022/03/01 02:57:13;;;;;;;;;;;21.10;42.10;;;;;;5135029;27;19927;-48
2022/03/01 02:59:40;;;;;;;;;;;21.10;42.10;;;;;;5145737;27;19937;-46
2022/03/01 03:02:09;;;;;;;;;;;21.10;42.10;;;;;;5155396;27;19923;-47
2022/03/01 03:04:36;;;;;;;;;;;21.00;42.10;;;;;;5154577;27;19965;-51
2022/03/01 03:07:04;;;;;;;;;;;21.10;42.10;;;;;;5155603;27;19923;-42
2022/03/01 03:09:32;;;;;;;;;;;21.10;42.10;;;;;;5155225;27;19967;-43
2022/03/01 03:11:59;;;;;;;;;;;21.00;42.10;;;;;;5155233;27;20379;-43
2022/03/01 03:14:26;;;;;;;;;;;21.00;42.10;;;;;;5154377;27;19968;-42
2022/03/01 03:16:53;;;;;;;;;;;21.00;42.10;;;;;;5155234;27;20343;-43
2022/03/01 03:19:20;;;;;;;;;;;21.10;42.10;;;;;;5153876;27;19971;-44
2022/03/01 03:21:47;;;;;;;;;;;21.00;42.10;;;;;;5155281;27;20402;-43
2022/03/01 03:24:14;;;;;;;;;;;21.00;42.10;;;;;;5155152;27;19923;-42
2022/03/01 03:26:42;;;;;;;;;;;21.10;42.10;;;;;;5155408;27;19927;-45
2022/03/01 03:29:10;;;;;;;;;;;21.00;42.10;;;;;;5154307;27;19923;-43
2022/03/01 03:31:38;;;;;;;;;;;21.00;42.10;;;;;;5155281;27;19927;-43
2022/03/01 03:34:07;;;;;;;;;;;21.00;42.10;;;;;;5154221;27;19924;-43
2022/03/01 03:36:35;;;;;;;;;;;21.00;42.10;;;;;;5155301;27;19975;-41
2022/03/01 03:39:04;;;;;;;;;;;21.00;42.10;;;;;;5136725;27;19980;-44
2022/03/01 03:41:31;;;;;;;;;;;21.00;42.10;;;;;;5158603;27;19924;-46
2022/03/01 03:43:59;;;;;;;;;;;21.00;42.10;;;;;;5158495;27;19968;-45
2022/03/01 03:46:26;;;;;;;;;;;21.00;42.10;;;;;;5159360;27;19923;-47
2022/03/01 03:48:54;;;;;;;;;;;21.00;42.10;;;;;;5157836;27;20014;-44
2022/03/01 03:51:23;;;;;;;;;;;21.00;42.10;;;;;;5159052;27;19926;-43
2022/03/01 03:53:50;;;;;;;;;;;21.00;42.10;;;;;;5159252;27;20285;-42
2022/03/01 03:56:17;;;;;;;;;;;21.00;42.10;;;;;;5159175;27;19923;-45
2022/03/01 03:58:45;;;;;;;;;;;21.00;42.10;;;;;;5159108;27;19927;-49
2022/03/01 04:01:12;;;;;;;;;;;21.00;42.10;;;;;;5158315;27;19976;-44
2022/03/01 04:03:39;;;;;;;;;;;21.00;42.10;;;;;;5157971;27;19950;-46
2022/03/01 04:06:06;;;;;;;;;;;21.00;42.30;;;;;;5158678;27;19924;-44
2022/03/01 04:08:34;;;;;;;;;;;21.00;42.10;;;;;;5158952;27;19991;-42
2022/03/01 04:11:02;;;;;;;;;;;21.00;42.10;;;;;;5158837;27;20298;-43
2022/03/01 04:13:29;;;;;;;;;;;21.00;42.10;;;;;;5158738;27;19923;-45
2022/03/01 04:15:56;;;;;;;;;;;21.00;42.10;;;;;;5157753;27;19923;-42
2022/03/01 04:18:23;;;;;;;;;;;21.00;42.10;;;;;;5158170;27;19942;-45
2022/03/01 04:20:50;;;;;;;;;;;21.00;42.10;;;;;;5137756;27;19923;-42
2022/03/01 04:23:17;;;;;;;;;;;21.00;42.10;;;;;;5137461;27;20314;-43
2022/03/01 04:25:44;;;;;;;;;;;21.00;42.10;;;;;;5137910;27;19958;-43
2022/03/01 04:28:12;;;;;;;;;;;21.00;42.10;;;;;;5137819;27;19923;-43
2022/03/01 04:30:39;;;;;;;;;;;21.00;42.10;;;;;;5148104;27;19946;-43
2022/03/01 04:33:06;;;;;;;;;;;21.00;42.10;;;;;;5158478;27;19923;-43
2022/03/01 04:35:34;;;;;;;;;;;20.90;42.00;;;;;;5156959;27;19979;-44
2022/03/01 04:38:01;;;;;;;;;;;21.00;42.10;;;;;;5158058;27;20438;-42
2022/03/01 04:40:28;;;;;;;;;;;20.90;42.10;;;;;;5158322;27;19927;-43
2022/03/01 04:42:54;;;;;;;;;;;20.90;42.00;;;;;;5158137;27;19965;-44
2022/03/01 04:45:21;;;;;;;;;;;20.90;42.00;;;;;;5157438;27;19923;-44
2022/03/01 04:47:49;;;;;;;;;;;20.90;42.00;;;;;;5139545;27;19962;-43
2022/03/01 04:50:16;;;;;;;;;;;20.90;42.00;;;;;;5156330;27;19971;-43
2022/03/01 04:52:43;;;;;;;;;;;21.00;42.10;;;;;;5157462;27;19927;-43
2022/03/01 04:55:12;;;;;;;;;;;20.90;42.00;;;;;;5157731;27;19923;-42
2022/03/01 04:57:39;;;;;;;;;;;20.90;42.10;;;;;;5158011;27;19923;-43
2022/03/01 05:00:10;;;;;;;;;;;20.90;42.10;;;;;;5157207;27;19995;-44
2022/03/01 05:02:42;;;;;;;;;;;20.90;42.10;;;;;;5158182;27;19993;-43
2022/03/01 05:05:10;;;;;;;;;;;20.90;42.10;;;;;;5156722;27;20003;-44
2022/03/01 05:07:41;;;;;;;;;;;20.90;42.00;;;;;;5157774;27;20305;-43
2022/03/01 05:10:09;;;;;;;;;;;20.90;42.00;;;;;;5157756;27;19923;-43
2022/03/01 05:12:40;;;;;;;;;;;20.90;42.10;;;;;;5157406;27;19949;-44
2022/03/01 05:15:07;;;;;;;;;;;20.90;42.10;;;;;;5156426;27;19923;-42
2022/03/01 05:17:34;;;;;;;;;;;20.90;42.00;;;;;;5157253;27;20382;-43
2022/03/01 05:20:01;;;;;;;;;;;20.90;42.10;;;;;;5156034;27;19923;-46
2022/03/01 05:22:28;;;;;;;;;;;20.90;42.10;;;;;;5157293;27;19930;-49
2022/03/01 05:24:55;;;;;;;;;;;20.90;42.10;;;;;;5157442;27;19923;-44
2022/03/01 05:27:22;;;;;;;;;;;20.90;42.10;;;;;;5157404;27;20312;-43
2022/03/01 05:29:50;;;;;;;;;;;20.90;42.10;;;;;;5138656;27;20382;-45
2022/03/01 05:32:17;;;;;;;;;;;20.90;42.10;;;;;;5156145;27;20010;-43
2022/03/01 05:34:44;;;;;;;;;;;20.90;42.00;;;;;;5156059;27;20367;-43
2022/03/01 05:37:11;;;;;;;;;;;20.90;42.00;;;;;;5156879;27;19972;-45
2022/03/01 05:39:39;;;;;;;;;;;20.90;42.10;;;;;;5138619;27;19930;-42
2022/03/01 05:42:08;;;;;;;;;;;20.90;42.10;;;;;;5156823;27;19971;-44
2022/03/01 05:44:35;;;;;;;;;;;20.90;42.10;;;;;;5156634;27;19976;-43
2022/03/01 05:47:02;;;;;;;;;;;20.90;42.00;;;;;;5155940;27;19930;-43
2022/03/01 05:49:29;;;;;;;;;;;20.90;42.00;;;;;;5137616;27;20006;-46
2022/03/01 05:51:56;;;;;;;;;;;20.90;42.10;;;;;;5156354;27;19978;-42
2022/03/01 05:54:23;;;;;;;;;;;20.90;42.10;;;;;;5156536;27;19927;-43
2022/03/01 05:56:50;;;;;;;;;;;20.90;42.00;;;;;;5156487;27;19923;-43
2022/03/01 05:59:17;;;;;;;;;;;20.90;42.10;;;;;;5156438;27;19923;-44
2022/03/01 06:01:44;;;;;;;;;;;20.90;42.00;;;;;;5155531;27;19923;-44
2022/03/01 06:04:11;;;;;;;;;;;20.90;42.10;;;;;;5155667;27;20014;-43
2022/03/01 06:06:39;;;;;;;;;;;20.90;42.10;;;;;;5155573;27;19931;-44
2022/03/01 06:09:06;;;;;;;;;;;20.90;42.00;;;;;;5156259;27;19968;-44
2022/03/01 06:11:33;;;;;;;;;;;20.90;42.00;;;;;;5156135;27;19927;-44
2022/03/01 06:14:00;;;;;;;;;;;20.90;42.00;;;;;;5156370;27;19930;-46
2022/03/01 06:16:27;;;;;;;;;;;20.90;42.00;;;;;;5155263;27;19923;-42
2022/03/01 06:18:54;;;;;;;;;;;20.90;42.00;;;;;;5156089;27;19971;-43
2022/03/01 06:21:21;;;;;;;;;;;20.90;42.00;;;;;;5136698;27;19923;-43
2022/03/01 06:23:48;;;;;;;;;;;20.90;42.00;;;;;;5156243;27;19923;-44
2022/03/01 06:26:15;;;;;;;;;;;20.90;42.00;;;;;;5155889;27;19974;-44
2022/03/01 06:28:42;;;;;;;;;;;20.90;42.00;;;;;;5155814;27;19952;-44
2022/03/01 06:31:10;;;;;;;;;;;20.90;41.90;;;;;;5155693;27;19931;-43
2022/03/01 06:33:37;;;;;;;;;;;20.90;41.90;;;;;;5156082;27;19992;-44
2022/03/01 06:36:04;;;;;;;;;;;20.90;41.90;;;;;;5154971;27;19923;-44
2022/03/01 06:38:31;;;;;;;;;;;20.90;41.90;;;;;;5155738;27;19948;-43
2022/03/01 06:40:58;;;;;;;;;;;20.90;41.90;;;;;;5155972;27;19930;-45
2022/03/01 06:43:26;;;;;;;;;;;20.90;41.90;;;;;;5155775;27;19927;-46
2022/03/01 06:45:53;;;;;;;;;;;20.90;41.90;;;;;;5155803;27;19975;-42
2022/03/01 06:48:21;;;;;;;;;;;20.90;41.90;;;;;;5155226;27;19930;-45
2022/03/01 06:50:48;;;;;;;;;;;20.90;41.90;;;;;;5154208;27;19931;-43
2022/03/01 06:53:15;;;;;;;;;;;20.90;41.90;;;;;;5155621;27;19927;-44
2022/03/01 06:55:42;;;;;;;;;;;20.90;41.90;;;;;;5155740;27;19923;-46
2022/03/01 06:58:10;;;;;;;;;;;21.00;41.90;;;;;;5155745;27;19930;-45
2022/03/01 07:00:37;;;;;;;;;;;21.00;41.90;;;;;;5155379;27;19923;-47
2022/03/01 07:03:04;;;;;;;;;;;21.00;41.90;;;;;;5154577;27;19948;-45
2022/03/01 07:05:32;;;;;;;;;;;20.90;41.80;;;;;;5154452;27;20290;-49
2022/03/01 07:07:59;;;;;;;;;;;21.00;41.90;;;;;;5155278;27;19927;-46
2022/03/01 07:10:26;;;;;;;;;;;21.00;41.90;;;;;;5155616;27;19927;-50
2022/03/01 07:12:54;;;;;;;;;;;21.00;41.90;;;;;;5155308;27;20355;-51
2022/03/01 07:15:23;;;;;;;;;;;21.00;41.90;;;;;;5155386;27;20107;-46
2022/03/01 07:17:50;;;;;;;;;;;21.00;41.80;;;;;;5154387;27;19926;-43
2022/03/01 07:20:17;;;;;;;;;;;21.00;41.80;;;;;;5154951;27;19924;-48
2022/03/01 07:22:44;;;;;;;;;;;21.00;41.80;;;;;;5154632;27;19927;-46
2022/03/01 07:25:12;;;;;;;;;;;21.00;41.80;;;;;;5155104;27;19923;-44
2022/03/01 07:27:50;;;;;;;;;;;21.00;41.70;;;;;;5155439;27;19927;-47
2022/03/01 07:30:18;;;;;;;;;;;21.00;41.70;;;;;;5155356;27;19923;-44
2022/03/01 07:32:45;;;;;;;;;;;21.00;41.70;;;;;;5154398;27;19923;-43
2022/03/01 07:35:12;;;;;;;;;;;21.00;41.70;;;;;;5155393;27;19931;-42
2022/03/01 07:37:39;;;;;;;;;;;21.00;41.70;;;;;;5154241;27;19923;-42
2022/03/01 07:40:08;;;;;;;;;;;21.00;41.70;;;;;;5155288;27;19988;-49
2022/03/01 07:42:35;;;;;;;;;;;21.00;41.70;;;;;;5155232;27;19976;-43
2022/03/01 07:45:03;;;;;;;;;;;21.10;41.70;;;;;;5155079;27;19930;-48
2022/03/01 07:47:30;;;;;;;;;;;21.10;41.70;;;;;;5154456;27;19923;-45
2022/03/01 07:49:57;;;;;;;;;;;21.10;41.70;;;;;;5154863;27;19966;-47
2022/03/01 07:52:24;;;;;;;;;;;21.10;41.70;;;;;;5153780;27;20013;-45
2022/03/01 07:54:51;;;;;;;;;;;21.10;41.70;;;;;;5136490;27;20367;-50
2022/03/01 07:57:18;;;;;;;;;;;21.10;41.60;;;;;;5154803;27;20394;-48
2022/03/01 07:59:46;;;;;;;;;;;21.10;41.60;;;;;;5155127;27;19932;-44
2022/03/01 08:02:12;;;;;;;;;;;21.10;41.60;;;;;;5153981;27;19971;-44
2022/03/01 08:04:41;;;;;;;;;;;21.10;41.60;;;;;;5154660;27;19931;-44
2022/03/01 08:07:09;;;;;;;;;;;21.10;41.50;;;;;;5153813;27;19923;-42
2022/03/01 08:09:40;;;;;;;;;;;21.10;41.50;;;;;;5154994;27;20335;-46
2022/03/01 08:12:07;;;;;;;;;;;21.10;41.50;;;;;;5154632;27;19923;-46
2022/03/01 08:14:35;;;;;;;;;;;21.10;41.40;;;;;;5154489;27;19978;-46
2022/03/01 08:17:03;;;;;;;;;;;21.10;41.40;;;;;;5154092;27;19923;-45
2022/03/01 08:19:30;;;;;;;;;;;21.10;41.40;;;;;;5154509;27;19930;-47
2022/03/01 08:21:57;;;;;;;;;;;21.10;41.40;;;;;;5153243;27;19924;-44
2022/03/01 08:24:24;;;;;;;;;;;21.10;41.40;;;;;;5154812;27;19971;-44
2022/03/01 08:26:51;;;;;;;;;;;21.20;41.40;;;;;;5157139;27;19923;-48
2022/03/01 08:29:19;;;;;;;;;;;21.20;41.40;;;;;;5159127;27;19968;-44
2022/03/01 08:31:46;;;;;;;;;;;21.20;41.40;;;;;;5158100;27;19927;-43
2022/03/01 08:34:14;;;;;;;;;;;21.20;41.30;;;;;;5157369;27;20009;-43
2022/03/01 08:36:41;;;;;;;;;;;21.20;41.30;;;;;;5156989;27;20014;-43
2022/03/01 08:39:08;;;;;;;;;;;21.20;41.30;;;;;;5157933;27;19927;-46
2022/03/01 08:41:35;;;;;;;;;;;21.20;41.30;;;;;;5139987;27;19987;-42
2022/03/01 08:44:03;;;;;;;;;;;21.20;41.30;;;;;;5157611;27;19923;-44
2022/03/01 08:46:30;;;;;;;;;;;21.20;41.20;;;;;;5158030;27;20290;-42
2022/03/01 08:48:59;;;;;;;;;;;21.20;41.10;;;;;;5157556;27;19966;-42
2022/03/01 08:51:26;;;;;;;;;;;21.20;41.10;;;;;;5156638;27;20018;-43
2022/03/01 08:53:54;;;;;;;;;;;21.20;41.10;;;;;;5157981;27;19923;-43
2022/03/01 08:56:21;;;;;;;;;;;21.20;41.10;;;;;;5158005;27;20018;-43
2022/03/01 08:58:48;;;;;;;;;;;21.30;41.10;;;;;;5157560;27;19923;-44
2022/03/01 09:01:15;;;;;;;;;;;21.30;41.10;;;;;;5158336;27;19987;-42
2022/03/01 09:03:44;;;;;;;;;;;21.30;41.00;;;;;;5156836;27;19923;-42
2022/03/01 09:06:12;;;;;;;;;;;21.30;41.00;;;;;;5139630;27;20023;-42
2022/03/01 09:08:40;;;;;;;;;;;21.30;41.00;;;;;;5156728;27;19923;-44
2022/03/01 09:11:09;;;;;;;;;;;21.30;40.90;;;;;;5157693;27;19923;-43
2022/03/01 09:13:36;;;;;;;;;;;21.30;40.90;;;;;;5157483;27;19930;-44
2022/03/01 09:16:03;;;;;;;;;;;21.30;40.80;;;;;;5157789;27;19923;-47
2022/03/01 09:18:30;;;;;;;;;;;21.30;40.80;;;;;;5156156;27;19923;-44
2022/03/01 09:20:57;;;;;;;;;;;21.30;40.70;;;;;;5157002;27;19975;-43
2022/03/01 09:23:24;;;;;;;;;;;21.30;40.70;;;;;;5156108;27;20001;-44
2022/03/01 09:25:51;;;;;;;;;;;21.40;40.70;;;;;;5157277;27;19971;-42
2022/03/01 09:28:18;;;;;;;;;;;21.40;40.70;;;;;;5157072;27;19927;-44
2022/03/01 09:30:45;;;;;;;;;;;21.40;40.60;;;;;;5138962;27;19923;-42
2022/03/01 09:33:12;;;;;;;;;;;21.40;40.60;;;;;;5156099;27;19941;-42
2022/03/01 09:35:40;;;;;;;;;;;21.40;40.50;;;;;;5157230;27;19923;-45
2022/03/01 09:38:07;;;;;;;;;;;21.40;40.50;;;;;;5154301;27;19923;-45
2022/03/01 09:40:34;;;;;;;;;;;21.40;40.50;;;;;;5138793;27;19930;-46
2022/03/01 09:43:02;;;;;;;;;;;21.40;40.40;;;;;;5156666;27;19924;-43
2022/03/01 09:45:29;;;;;;;;;;;21.40;40.40;;;;;;5157017;27;19923;-43
2022/03/01 09:47:56;;;;;;;;;;;21.40;40.30;;;;;;5138386;27;19923;-42
2022/03/01 09:50:27;;;;;;;;;;;21.40;40.30;;;;;;5155835;27;20366;-50
2022/03/01 09:52:55;;;;;;;;;;;21.50;40.30;;;;;;5155519;27;19931;-42
2022/03/01 09:55:23;;;;;;;;;;;21.50;40.40;;;;;;5156819;27;20340;-43
2022/03/01 09:57:54;;;;;;;;;;;21.50;40.30;;;;;;5156798;27;19926;-43
2022/03/01 10:00:21;;;;;;;;;;;21.50;40.30;;;;;;5156784;27;19930;-43
2022/03/01 10:02:52;;;;;;;;;;;21.50;40.20;;;;;;5156712;27;19923;-42
2022/03/01 10:05:30;;;;;;;;;;;21.50;40.20;;;;;;5155613;27;19938;-44
2022/03/01 10:08:05;;;;;;;;;;;21.50;40.10;;;;;;5155430;27;19927;-47
2022/03/01 10:10:36;;;;;;;;;;;21.50;40.10;;;;;;5156566;27;19958;-47
2022/03/01 10:13:03;;;;;;;;;;;21.60;40.10;;;;;;5156302;27;19923;-51
2022/03/01 10:15:32;;;;;;;;;;;21.60;40.10;;;;;;5156411;27;19927;-48
2022/03/01 10:18:08;;;;;;;;;;;21.60;40.10;;;;;;5156411;27;19966;-43
2022/03/01 10:20:35;;;;;;;;;;;21.60;40.10;;;;;;5114329;28;19928;-47
2022/03/01 10:23:02;;;;;;;;;;;21.60;40.10;;;;;;5113505;28;19984;-49
2022/03/01 10:25:29;;;;;;;;;;;21.60;40.00;;;;;;5115003;28;19923;-51
2022/03/01 10:28:01;;;;;;;;;;;21.60;40.00;;;;;;5115022;28;19970;-46
2022/03/01 10:30:30;;;;;;;;;;;21.60;39.90;;;;;;5114296;28;19930;-44
2022/03/01 10:33:12;;;;;;;;;;;21.60;40.00;;;;;;5114801;28;19996;-47
2022/03/01 10:35:48;;;;;;;;;;;21.70;40.00;;;;;;5096088;28;19928;-44
2022/03/01 10:38:19;;;;;;;;;;;21.70;40.00;;;;;;5099758;28;19950;-49
2022/03/01 10:40:46;;;;;;;;;;;21.70;40.00;;;;;;5114472;28;20437;-46
2022/03/01 10:43:14;;;;;;;;;;;21.70;40.00;;;;;;5114273;28;19924;-43
2022/03/01 10:45:43;;;;;;;;;;;21.70;39.90;;;;;;5114654;28;19927;-50
2022/03/01 10:48:12;;;;;;;;;;;21.70;39.90;;;;;;5113969;28;19924;-42
2022/03/01 10:50:40;;;;;;;;;;;21.70;39.90;;;;;;5113672;28;19924;-45
2022/03/01 10:53:07;;;;;;;;;;;21.70;39.90;;;;;;5112801;28;20394;-44
2022/03/01 10:55:36;;;;;;;;;;;21.70;39.90;;;;;;5114245;28;20446;-43
2022/03/01 10:58:11;;;;;;;;;;;21.80;40.00;;;;;;5114160;28;19924;-44
2022/03/01 11:00:39;;;;;;;;;;;21.80;39.90;;;;;;5114453;28;20268;-45
2022/03/01 11:03:07;;;;;;;;;;;21.80;39.90;;;;;;5114159;28;19924;-43
2022/03/01 11:05:35;;;;;;;;;;;21.80;39.90;;;;;;5113292;28;19927;-45
2022/03/01 11:08:25;;;;;;;;;;;21.80;39.90;;;;;;5113009;28;19959;-47
2022/03/01 11:10:55;;;;;;;;;;;21.80;39.90;;;;;;5113971;28;19980;-44
2022/03/01 11:13:24;;;;;;;;;;;21.80;39.90;;;;;;5114073;28;19931;-43
2022/03/01 11:15:54;;;;;;;;;;;21.90;40.00;;;;;;5113925;28;19949;-43
2022/03/01 11:18:34;;;;;;;;;;;21.90;39.90;;;;;;5118040;27;19924;-44
2022/03/01 11:21:05;;;;;;;;;;;21.90;39.90;;;;;;5154283;27;20404;-43
2022/03/01 11:23:33;;;;;;;;;;;21.90;39.90;;;;;;5154449;27;19923;-47
2022/03/01 11:26:10;;;;;;;;;;;21.90;39.90;;;;;;5155103;27;20404;-43
2022/03/01 11:28:40;;;;;;;;;;;21.90;39.90;;;;;;5155068;27;19923;-44
2022/03/01 11:31:21;;;;;;;;;;;21.90;39.80;;;;;;5155354;27;20262;-44
2022/03/01 11:34:04;;;;;;;;;;;21.90;39.80;;;;;;5154926;27;19923;-43
2022/03/01 11:36:32;;;;;;;;;;;22.00;39.90;;;;;;5154271;27;19923;-45
2022/03/01 11:39:08;;;;;;;;;;;22.00;39.90;;;;;;5153778;27;20374;-43
2022/03/01 11:41:41;;;;;;;;;;;22.00;39.80;;;;;;5154808;27;19985;-45
2022/03/01 11:44:09;;;;;;;;;;;22.00;39.80;;;;;;5154615;27;20371;-45
2022/03/01 11:46:40;;;;;;;;;;;22.00;39.80;;;;;;5154898;27;19972;-44
2022/03/01 11:49:07;;;;;;;;;;;22.00;39.80;;;;;;5154902;27;19930;-44
2022/03/01 11:51:36;;;;;;;;;;;22.00;39.80;;;;;;5153929;27;19923;-45
2022/03/01 11:54:08;;;;;;;;;;;22.00;39.80;;;;;;5153567;27;19924;-44
2022/03/01 11:56:36;;;;;;;;;;;22.00;39.80;;;;;;5155172;27;19927;-44
2022/03/01 11:59:11;;;;;;;;;;;22.00;39.80;;;;;;5136791;27;19923;-43
2022/03/01 12:01:58;;;;;;;;;;;22.00;39.80;;;;;;5157588;27;19923;-46
2022/03/01 12:04:27;;;;;;;;;;;22.00;39.80;;;;;;5158734;27;19931;-42
2022/03/01 12:06:57;;;;;;;;;;;22.00;39.80;;;;;;5139919;27;19923;-44
2022/03/01 12:09:27;;;;;;;;;;;22.00;39.70;;;;;;5157563;27;20385;-46
2022/03/01 12:12:05;;;;;;;;;;;22.00;39.80;;;;;;5158846;27;19972;-44
2022/03/01 12:14:34;;;;;;;;;;;22.00;39.80;;;;;;5158772;27;19923;-46
2022/03/01 12:17:02;;;;;;;;;;;22.10;39.80;;;;;;5158398;27;19937;-43
2022/03/01 12:19:33;;;;;;;;;;;22.10;39.80;;;;;;5139945;27;19923;-45
2022/03/01 12:22:01;;;;;;;;;;;22.10;39.80;;;;;;5157431;27;19976;-49
2022/03/01 12:24:29;;;;;;;;;;;22.10;39.80;;;;;;5157377;27;20336;-46
2022/03/01 12:26:58;;;;;;;;;;;22.10;39.80;;;;;;5158499;27;19980;-52
2022/03/01 12:29:34;;;;;;;;;;;22.10;39.80;;;;;;5158332;27;19927;-45
2022/03/01 12:32:05;;;;;;;;;;;22.10;40.10;;;;;;5158365;27;19923;-43
2022/03/01 12:34:33;;;;;;;;;;;22.10;39.80;;;;;;5158351;27;19927;-42
2022/03/01 12:37:02;;;;;;;;;;;22.10;39.80;;;;;;5157691;27;20336;-44
2022/03/01 12:39:30;;;;;;;;;;;22.10;39.80;;;;;;5157101;27;19968;-43
2022/03/01 12:41:58;;;;;;;;;;;22.10;40.40;;;;;;5157929;27;19923;-42
2022/03/01 12:44:29;;;;;;;;;;;22.10;39.70;;;;;;5157756;27;20010;-42
2022/03/01 12:46:57;;;;;;;;;;;22.10;39.70;;;;;;5158142;27;19927;-42
2022/03/01 12:49:24;;;;;;;;;;;22.10;39.70;;;;;;5158192;27;19927;-43
2022/03/01 12:51:53;;;;;;;;;;;22.10;39.70;;;;;;5157212;27;19923;-44
2022/03/01 12:54:25;;;;;;;;;;;22.10;39.70;;;;;;5156888;27;19923;-44
2022/03/01 12:56:53;;;;;;;;;;;22.10;39.70;;;;;;5157713;27;19930;-43
2022/03/01 12:59:26;;;;;;;;;;;22.10;39.70;;;;;;5157926;27;19960;-43
2022/03/01 13:01:54;;;;;;;;;;;22.10;39.70;;;;;;5158013;27;19923;-43
2022/03/01 13:04:26;;;;;;;;;;;22.10;39.70;;;;;;5157599;27;19930;-42
2022/03/01 13:06:54;;;;;;;;;;;22.10;39.70;;;;;;5157021;27;19927;-44
2022/03/01 13:09:22;;;;;;;;;;;22.20;39.80;;;;;;5156333;27;19927;-42
2022/03/01 13:11:49;;;;;;;;;;;22.20;39.80;;;;;;5157740;27;19923;-44
2022/03/01 13:14:24;;;;;;;;;;;22.20;39.80;;;;;;5157285;27;20370;-44
2022/03/01 13:16:53;;;;;;;;;;;22.20;39.80;;;;;;5157727;27;19923;-43
2022/03/01 13:19:21;;;;;;;;;;;22.20;39.80;;;;;;5157318;27;19923;-48
2022/03/01 13:21:49;;;;;;;;;;;22.20;39.80;;;;;;5156349;27;20386;-49
2022/03/01 13:24:34;;;;;;;;;;;22.20;39.70;;;;;;5156325;27;19927;-44
2022/03/01 13:27:02;;;;;;;;;;;22.20;39.80;;;;;;5157496;27;19945;-46
2022/03/01 13:29:33;;;;;;;;;;;22.20;39.80;;;;;;5157041;27;19968;-44
2022/03/01 13:32:17;;;;;;;;;;;22.20;39.70;;;;;;5158256;27;20411;-48
2022/03/01 13:34:45;;;;;;;;;;;22.20;39.70;;;;;;5157323;27;20243;-47
2022/03/01 13:37:13;;;;;;;;;;;22.20;39.70;;;;;;5156425;27;19982;-52
2022/03/01 13:39:41;;;;;;;;;;;22.20;39.80;;;;;;5156071;27;19979;-47
2022/03/01 13:42:12;;;;;;;;;;;22.20;39.80;;;;;;5156822;27;19972;-48
2022/03/01 13:44:45;;;;;;;;;;;22.20;39.70;;;;;;5157154;27;19937;-45
2022/03/01 13:47:16;;;;;;;;;;;22.20;39.70;;;;;;5157103;27;19931;-48
2022/03/01 13:49:44;;;;;;;;;;;22.20;39.80;;;;;;5156752;27;19982;-45
2022/03/01 13:52:16;;;;;;;;;;;22.20;39.70;;;;;;5155615;27;19930;-48
2022/03/01 13:54:59;;;;;;;;;;;22.20;39.70;;;;;;5155759;27;19934;-45
2022/03/01 13:57:28;;;;;;;;;;;22.20;40.40;;;;;;5156537;27;19927;-43
2022/03/01 13:59:55;;;;;;;;;;;22.20;39.70;;;;;;5156831;27;19923;-43
2022/03/01 14:02:22;;;;;;;;;;;22.20;39.70;;;;;;5156754;27;19923;-43
2022/03/01 14:04:56;;;;;;;;;;;22.20;39.70;;;;;;5156334;27;19931;-41
2022/03/01 14:07:24;;;;;;;;;;;22.20;39.70;;;;;;5155866;27;19922;-43
2022/03/01 14:09:52;;;;;;;;;;;22.20;39.70;;;;;;5155358;27;20383;-43
2022/03/01 14:12:29;;;;;;;;;;;22.20;39.70;;;;;;5156458;27;20339;-42
2022/03/01 14:15:13;;;;;;;;;;;22.20;39.70;;;;;;5156215;27;20026;-46
2022/03/01 14:17:40;;;;;;;;;;;22.20;39.70;;;;;;5156138;27;19929;-42
2022/03/01 14:20:07;;;;;;;;;;;22.20;39.70;;;;;;5155888;27;19927;-42
2022/03/01 14:22:35;;;;;;;;;;;22.20;39.70;;;;;;5155163;27;20449;-46